sensor_id;sensor_type;location;lat;lon;timestamp;P1;durP1;ratioP1;P2;durP2;ratioP2
1412;SDS011;701;52.526;13.408;2023-06-22T00:02:16;14.35;;;8.77;;
1412;SDS011;701;52.526;13.408;2023-06-22T00:04:42;14.45;;;7.85;;
1412;SDS011;701;52.526;13.408;2023-06-22T00:07:08;12.05;;;8.20;;
1412;SDS011;701;52.526;13.408;2023-06-22T00:09:34;13.20;;;8.57;;
1412;SDS011;701;52.526;13.408;2023-06-22T00:12:00;15.32;;;9.43;;
1412;SDS011;701;52.526;13.408;2023-06-22T00:14:26;15.07;;;8.93;;
1412;SDS011;701;52.526;13.408;2023-06-22T00:16:51;14.02;;;8.68;;
1412;SDS011;701;52.526;13.408;2023-06-22T00:19:22;14.55;;;8.52;;
1412;SDS011;701;52.526;13.408;2023-06-22T00:21:48;13.32;;;8.50;;
1412;SDS011;701;52.526;13.408;2023-06-22T00:24:19;12.63;;;8.50;;
1412;SDS011;701;52.526;13.408;2023-06-22T00:26:45;12.43;;;8.02;;
1412;SDS011;701;52.526;13.408;2023-06-22T00:29:12;14.05;;;8.70;;
1412;SDS011;701;52.526;13.408;2023-06-22T00:31:37;14.03;;;8.77;;
1412;SDS011;701;52.526;13.408;2023-06-22T00:34:03;17.80;;;8.77;;
1412;SDS011;701;52.526;13.408;2023-06-22T00:36:29;13.23;;;9.07;;
1412;SDS011;701;52.526;13.408;2023-06-22T00:38:55;13.30;;;8.90;;
1412;SDS011;701;52.526;13.408;2023-06-22T00:41:22;12.50;;;8.13;;
1412;SDS011;701;52.526;13.408;2023-06-22T00:43:48;13.27;;;8.60;;
1412;SDS011;701;52.526;13.408;2023-06-22T00:46:14;13.20;;;8.90;;
1412;SDS011;701;52.526;13.408;2023-06-22T00:48:42;11.27;;;7.80;;
1412;SDS011;701;52.526;13.408;2023-06-22T00:51:09;13.18;;;8.55;;
1412;SDS011;701;52.526;13.408;2023-06-22T00:53:37;13.10;;;8.30;;
1412;SDS011;701;52.526;13.408;2023-06-22T00:56:03;13.48;;;8.38;;
1412;SDS011;701;52.526;13.408;2023-06-22T00:58:30;12.50;;;8.43;;
1412;SDS011;701;52.526;13.408;2023-06-22T01:00:56;14.60;;;8.17;;
1412;SDS011;701;52.526;13.408;2023-06-22T01:03:26;13.85;;;8.85;;
1412;SDS011;701;52.526;13.408;2023-06-22T01:05:51;14.07;;;7.93;;
1412;SDS011;701;52.526;13.408;2023-06-22T01:08:36;14.85;;;9.23;;
1412;SDS011;701;52.526;13.408;2023-06-22T01:13:37;14.25;;;9.10;;
1412;SDS011;701;52.526;13.408;2023-06-22T01:18:56;13.77;;;8.90;;
1412;SDS011;701;52.526;13.408;2023-06-22T01:21:28;14.02;;;9.77;;
1412;SDS011;701;52.526;13.408;2023-06-22T01:29:34;14.32;;;9.38;;
1412;SDS011;701;52.526;13.408;2023-06-22T01:32:03;16.27;;;9.05;;
1412;SDS011;701;52.526;13.408;2023-06-22T01:34:31;13.88;;;9.23;;
1412;SDS011;701;52.526;13.408;2023-06-22T01:36:58;15.63;;;9.23;;
1412;SDS011;701;52.526;13.408;2023-06-22T01:39:28;16.15;;;10.27;;
1412;SDS011;701;52.526;13.408;2023-06-22T01:41:55;15.13;;;9.93;;
1412;SDS011;701;52.526;13.408;2023-06-22T01:44:22;18.17;;;11.18;;
1412;SDS011;701;52.526;13.408;2023-06-22T01:46:49;17.30;;;10.98;;
1412;SDS011;701;52.526;13.408;2023-06-22T01:49:16;17.40;;;10.67;;
1412;SDS011;701;52.526;13.408;2023-06-22T01:51:42;17.02;;;10.77;;
1412;SDS011;701;52.526;13.408;2023-06-22T01:54:07;15.73;;;10.45;;
1412;SDS011;701;52.526;13.408;2023-06-22T01:56:33;16.87;;;10.27;;
1412;SDS011;701;52.526;13.408;2023-06-22T02:01:57;18.45;;;10.43;;
1412;SDS011;701;52.526;13.408;2023-06-22T02:07:17;23.15;;;11.80;;
1412;SDS011;701;52.526;13.408;2023-06-22T02:09:44;19.17;;;10.47;;
1412;SDS011;701;52.526;13.408;2023-06-22T02:12:12;18.63;;;10.88;;
1412;SDS011;701;52.526;13.408;2023-06-22T02:14:42;18.20;;;10.57;;
1412;SDS011;701;52.526;13.408;2023-06-22T02:17:08;17.02;;;11.23;;
1412;SDS011;701;52.526;13.408;2023-06-22T02:19:38;19.75;;;11.52;;
1412;SDS011;701;52.526;13.408;2023-06-22T02:22:06;18.67;;;10.60;;
1412;SDS011;701;52.526;13.408;2023-06-22T02:24:32;17.08;;;11.07;;
1412;SDS011;701;52.526;13.408;2023-06-22T02:26:59;16.90;;;11.27;;
1412;SDS011;701;52.526;13.408;2023-06-22T02:29:26;18.63;;;11.63;;
1412;SDS011;701;52.526;13.408;2023-06-22T02:31:52;18.97;;;11.10;;
1412;SDS011;701;52.526;13.408;2023-06-22T02:34:19;18.38;;;11.35;;
1412;SDS011;701;52.526;13.408;2023-06-22T02:36:45;18.73;;;11.25;;
1412;SDS011;701;52.526;13.408;2023-06-22T02:39:22;17.60;;;11.05;;
1412;SDS011;701;52.526;13.408;2023-06-22T02:41:49;16.02;;;11.23;;
1412;SDS011;701;52.526;13.408;2023-06-22T02:44:16;16.40;;;10.87;;
1412;SDS011;701;52.526;13.408;2023-06-22T02:46:42;17.50;;;11.48;;
1412;SDS011;701;52.526;13.408;2023-06-22T02:49:08;17.30;;;11.13;;
1412;SDS011;701;52.526;13.408;2023-06-22T02:51:34;17.60;;;11.05;;
1412;SDS011;701;52.526;13.408;2023-06-22T02:54:01;19.10;;;11.98;;
1412;SDS011;701;52.526;13.408;2023-06-22T02:56:28;17.57;;;11.90;;
1412;SDS011;701;52.526;13.408;2023-06-22T02:58:58;19.65;;;11.90;;
1412;SDS011;701;52.526;13.408;2023-06-22T03:01:31;18.92;;;11.07;;
1412;SDS011;701;52.526;13.408;2023-06-22T03:04:03;17.17;;;10.65;;
1412;SDS011;701;52.526;13.408;2023-06-22T03:06:30;16.63;;;10.65;;
1412;SDS011;701;52.526;13.408;2023-06-22T03:09:00;15.97;;;10.87;;
1412;SDS011;701;52.526;13.408;2023-06-22T03:11:29;16.38;;;11.40;;
1412;SDS011;701;52.526;13.408;2023-06-22T03:13:56;16.35;;;11.20;;
1412;SDS011;701;52.526;13.408;2023-06-22T03:16:22;17.05;;;11.18;;
1412;SDS011;701;52.526;13.408;2023-06-22T03:18:48;19.37;;;11.30;;
1412;SDS011;701;52.526;13.408;2023-06-22T03:21:14;19.23;;;11.38;;
1412;SDS011;701;52.526;13.408;2023-06-22T03:23:40;18.10;;;10.30;;
1412;SDS011;701;52.526;13.408;2023-06-22T03:26:08;18.23;;;10.57;;
1412;SDS011;701;52.526;13.408;2023-06-22T03:28:35;20.35;;;10.65;;
1412;SDS011;701;52.526;13.408;2023-06-22T03:31:00;14.68;;;9.52;;
1412;SDS011;701;52.526;13.408;2023-06-22T03:33:29;18.70;;;10.17;;
1412;SDS011;701;52.526;13.408;2023-06-22T03:35:57;15.50;;;9.50;;
1412;SDS011;701;52.526;13.408;2023-06-22T03:38:23;13.95;;;9.50;;
1412;SDS011;701;52.526;13.408;2023-06-22T03:40:51;13.02;;;8.82;;
1412;SDS011;701;52.526;13.408;2023-06-22T03:43:18;18.53;;;8.90;;
1412;SDS011;701;52.526;13.408;2023-06-22T03:45:44;13.18;;;8.32;;
1412;SDS011;701;52.526;13.408;2023-06-22T03:48:11;13.38;;;8.68;;
1412;SDS011;701;52.526;13.408;2023-06-22T03:50:37;17.13;;;8.90;;
1412;SDS011;701;52.526;13.408;2023-06-22T03:53:03;13.20;;;8.03;;
1412;SDS011;701;52.526;13.408;2023-06-22T03:55:29;14.15;;;8.80;;
1412;SDS011;701;52.526;13.408;2023-06-22T03:57:55;13.82;;;8.25;;
1412;SDS011;701;52.526;13.408;2023-06-22T04:00:22;15.02;;;8.45;;
1412;SDS011;701;52.526;13.408;2023-06-22T04:02:48;13.60;;;8.13;;
1412;SDS011;701;52.526;13.408;2023-06-22T04:05:15;16.45;;;8.55;;
1412;SDS011;701;52.526;13.408;2023-06-22T04:07:42;13.32;;;7.60;;
1412;SDS011;701;52.526;13.408;2023-06-22T04:10:08;15.13;;;7.47;;
1412;SDS011;701;52.526;13.408;2023-06-22T04:12:34;11.17;;;7.17;;
1412;SDS011;701;52.526;13.408;2023-06-22T04:15:00;13.45;;;7.75;;
1412;SDS011;701;52.526;13.408;2023-06-22T04:17:26;11.18;;;6.65;;
1412;SDS011;701;52.526;13.408;2023-06-22T04:19:51;13.37;;;7.53;;
1412;SDS011;701;52.526;13.408;2023-06-22T04:22:17;13.05;;;6.45;;
1412;SDS011;701;52.526;13.408;2023-06-22T04:24:43;13.67;;;6.43;;
1412;SDS011;701;52.526;13.408;2023-06-22T04:27:09;12.48;;;6.40;;
1412;SDS011;701;52.526;13.408;2023-06-22T04:29:35;12.23;;;6.47;;
1412;SDS011;701;52.526;13.408;2023-06-22T04:32:03;10.95;;;5.80;;
1412;SDS011;701;52.526;13.408;2023-06-22T04:34:30;11.90;;;5.87;;
1412;SDS011;701;52.526;13.408;2023-06-22T04:36:56;10.65;;;5.72;;
1412;SDS011;701;52.526;13.408;2023-06-22T04:39:23;9.80;;;5.40;;
1412;SDS011;701;52.526;13.408;2023-06-22T04:41:49;12.40;;;5.40;;
1412;SDS011;701;52.526;13.408;2023-06-22T04:44:17;11.17;;;4.90;;
1412;SDS011;701;52.526;13.408;2023-06-22T04:46:52;8.40;;;4.55;;
1412;SDS011;701;52.526;13.408;2023-06-22T04:49:27;12.45;;;4.93;;
1412;SDS011;701;52.526;13.408;2023-06-22T04:52:07;9.20;;;4.70;;
1412;SDS011;701;52.526;13.408;2023-06-22T04:54:34;10.63;;;4.57;;
1412;SDS011;701;52.526;13.408;2023-06-22T04:57:01;8.67;;;4.13;;
1412;SDS011;701;52.526;13.408;2023-06-22T04:59:29;9.82;;;4.10;;
1412;SDS011;701;52.526;13.408;2023-06-22T05:01:59;10.63;;;3.90;;
1412;SDS011;701;52.526;13.408;2023-06-22T05:04:26;9.40;;;4.15;;
1412;SDS011;701;52.526;13.408;2023-06-22T05:06:57;9.95;;;3.80;;
1412;SDS011;701;52.526;13.408;2023-06-22T05:09:23;9.13;;;3.60;;
1412;SDS011;701;52.526;13.408;2023-06-22T05:11:50;10.27;;;3.53;;
1412;SDS011;701;52.526;13.408;2023-06-22T05:14:16;8.35;;;3.50;;
1412;SDS011;701;52.526;13.408;2023-06-22T05:16:42;7.93;;;3.65;;
1412;SDS011;701;52.526;13.408;2023-06-22T05:19:08;7.70;;;3.20;;
1412;SDS011;701;52.526;13.408;2023-06-22T05:21:34;15.37;;;3.47;;
1412;SDS011;701;52.526;13.408;2023-06-22T05:24:00;10.30;;;3.92;;
1412;SDS011;701;52.526;13.408;2023-06-22T05:26:28;10.38;;;3.83;;
1412;SDS011;701;52.526;13.408;2023-06-22T05:28:55;8.07;;;3.43;;
1412;SDS011;701;52.526;13.408;2023-06-22T05:31:21;8.32;;;3.47;;
1412;SDS011;701;52.526;13.408;2023-06-22T05:33:47;8.73;;;3.60;;
1412;SDS011;701;52.526;13.408;2023-06-22T05:36:14;8.70;;;3.78;;
1412;SDS011;701;52.526;13.408;2023-06-22T05:38:41;8.50;;;3.80;;
1412;SDS011;701;52.526;13.408;2023-06-22T05:41:07;9.53;;;3.60;;
1412;SDS011;701;52.526;13.408;2023-06-22T05:43:33;7.78;;;3.75;;
1412;SDS011;701;52.526;13.408;2023-06-22T05:46:02;9.27;;;3.75;;
1412;SDS011;701;52.526;13.408;2023-06-22T05:48:28;8.45;;;3.65;;
1412;SDS011;701;52.526;13.408;2023-06-22T05:50:54;9.63;;;4.13;;
1412;SDS011;701;52.526;13.408;2023-06-22T05:53:20;7.80;;;4.07;;
1412;SDS011;701;52.526;13.408;2023-06-22T05:55:46;13.98;;;3.58;;
1412;SDS011;701;52.526;13.408;2023-06-22T05:58:12;10.17;;;3.67;;
1412;SDS011;701;52.526;13.408;2023-06-22T06:00:38;6.75;;;3.70;;
1412;SDS011;701;52.526;13.408;2023-06-22T06:03:04;7.57;;;3.58;;
1412;SDS011;701;52.526;13.408;2023-06-22T06:05:31;8.93;;;4.00;;
1412;SDS011;701;52.526;13.408;2023-06-22T06:07:57;8.43;;;4.32;;
1412;SDS011;701;52.526;13.408;2023-06-22T06:10:24;16.25;;;4.70;;
1412;SDS011;701;52.526;13.408;2023-06-22T06:12:50;10.38;;;4.43;;
1412;SDS011;701;52.526;13.408;2023-06-22T06:15:17;10.27;;;4.22;;
1412;SDS011;701;52.526;13.408;2023-06-22T06:17:52;8.30;;;4.20;;
1412;SDS011;701;52.526;13.408;2023-06-22T06:20:19;9.68;;;3.95;;
1412;SDS011;701;52.526;13.408;2023-06-22T06:22:46;8.27;;;4.10;;
1412;SDS011;701;52.526;13.408;2023-06-22T06:25:13;9.30;;;4.10;;
1412;SDS011;701;52.526;13.408;2023-06-22T06:27:44;8.07;;;4.35;;
1412;SDS011;701;52.526;13.408;2023-06-22T06:30:14;8.00;;;3.93;;
1412;SDS011;701;52.526;13.408;2023-06-22T06:32:41;9.80;;;3.88;;
1412;SDS011;701;52.526;13.408;2023-06-22T06:35:08;10.73;;;4.10;;
1412;SDS011;701;52.526;13.408;2023-06-22T06:37:38;6.88;;;3.67;;
1412;SDS011;701;52.526;13.408;2023-06-22T06:40:09;9.75;;;3.67;;
1412;SDS011;701;52.526;13.408;2023-06-22T06:42:36;6.93;;;2.90;;
1412;SDS011;701;52.526;13.408;2023-06-22T06:45:06;9.43;;;3.30;;
1412;SDS011;701;52.526;13.408;2023-06-22T06:47:32;9.50;;;3.78;;
1412;SDS011;701;52.526;13.408;2023-06-22T06:49:57;7.65;;;3.20;;
1412;SDS011;701;52.526;13.408;2023-06-22T06:52:23;9.03;;;2.90;;
1412;SDS011;701;52.526;13.408;2023-06-22T06:54:49;10.55;;;3.35;;
1412;SDS011;701;52.526;13.408;2023-06-22T06:57:17;6.13;;;3.23;;
1412;SDS011;701;52.526;13.408;2023-06-22T06:59:43;7.22;;;2.97;;
1412;SDS011;701;52.526;13.408;2023-06-22T07:02:09;8.13;;;2.90;;
1412;SDS011;701;52.526;13.408;2023-06-22T07:04:35;9.83;;;4.90;;
1412;SDS011;701;52.526;13.408;2023-06-22T07:07:01;8.50;;;3.42;;
1412;SDS011;701;52.526;13.408;2023-06-22T07:09:28;9.60;;;3.38;;
1412;SDS011;701;52.526;13.408;2023-06-22T07:11:54;10.50;;;3.22;;
1412;SDS011;701;52.526;13.408;2023-06-22T07:14:19;10.27;;;3.17;;
1412;SDS011;701;52.526;13.408;2023-06-22T07:16:45;6.13;;;2.75;;
1412;SDS011;701;52.526;13.408;2023-06-22T07:19:11;5.57;;;2.87;;
1412;SDS011;701;52.526;13.408;2023-06-22T07:21:38;6.80;;;3.10;;
1412;SDS011;701;52.526;13.408;2023-06-22T07:24:04;8.88;;;2.90;;
1412;SDS011;701;52.526;13.408;2023-06-22T07:26:33;7.83;;;3.20;;
1412;SDS011;701;52.526;13.408;2023-06-22T07:28:59;6.22;;;3.22;;
1412;SDS011;701;52.526;13.408;2023-06-22T07:31:25;5.93;;;2.85;;
1412;SDS011;701;52.526;13.408;2023-06-22T07:33:51;7.10;;;3.20;;
1412;SDS011;701;52.526;13.408;2023-06-22T07:36:17;5.13;;;3.08;;
1412;SDS011;701;52.526;13.408;2023-06-22T07:38:43;11.30;;;2.83;;
1412;SDS011;701;52.526;13.408;2023-06-22T07:41:09;7.07;;;2.80;;
1412;SDS011;701;52.526;13.408;2023-06-22T07:43:35;5.57;;;2.83;;
1412;SDS011;701;52.526;13.408;2023-06-22T07:46:05;6.27;;;3.00;;
1412;SDS011;701;52.526;13.408;2023-06-22T07:48:31;6.00;;;2.85;;
1412;SDS011;701;52.526;13.408;2023-06-22T07:50:57;5.78;;;2.50;;
1412;SDS011;701;52.526;13.408;2023-06-22T07:53:23;5.93;;;3.00;;
1412;SDS011;701;52.526;13.408;2023-06-22T07:55:49;5.20;;;2.47;;
1412;SDS011;701;52.526;13.408;2023-06-22T07:58:15;5.85;;;2.65;;
1412;SDS011;701;52.526;13.408;2023-06-22T08:00:41;8.35;;;3.20;;
1412;SDS011;701;52.526;13.408;2023-06-22T08:03:07;8.15;;;2.63;;
1412;SDS011;701;52.526;13.408;2023-06-22T08:05:32;11.73;;;2.83;;
1412;SDS011;701;52.526;13.408;2023-06-22T08:07:58;6.07;;;2.70;;
1412;SDS011;701;52.526;13.408;2023-06-22T08:10:24;9.07;;;2.70;;
1412;SDS011;701;52.526;13.408;2023-06-22T08:12:51;7.50;;;3.03;;
1412;SDS011;701;52.526;13.408;2023-06-22T08:15:17;9.85;;;3.00;;
1412;SDS011;701;52.526;13.408;2023-06-22T08:17:44;5.68;;;2.60;;
1412;SDS011;701;52.526;13.408;2023-06-22T08:20:11;5.82;;;2.95;;
1412;SDS011;701;52.526;13.408;2023-06-22T08:22:37;9.35;;;3.00;;
1412;SDS011;701;52.526;13.408;2023-06-22T08:25:04;6.97;;;2.77;;
1412;SDS011;701;52.526;13.408;2023-06-22T08:27:31;10.48;;;2.90;;
1412;SDS011;701;52.526;13.408;2023-06-22T08:30:00;11.23;;;2.80;;
1412;SDS011;701;52.526;13.408;2023-06-22T08:32:27;8.98;;;2.53;;
1412;SDS011;701;52.526;13.408;2023-06-22T08:34:54;8.13;;;2.65;;
1412;SDS011;701;52.526;13.408;2023-06-22T08:37:20;6.00;;;2.67;;
1412;SDS011;701;52.526;13.408;2023-06-22T08:39:55;6.05;;;2.80;;
1412;SDS011;701;52.526;13.408;2023-06-22T08:42:22;5.32;;;2.83;;
1412;SDS011;701;52.526;13.408;2023-06-22T08:44:49;7.28;;;2.63;;
1412;SDS011;701;52.526;13.408;2023-06-22T08:47:15;5.57;;;2.88;;
1412;SDS011;701;52.526;13.408;2023-06-22T08:49:41;8.83;;;3.03;;
1412;SDS011;701;52.526;13.408;2023-06-22T08:52:07;5.90;;;2.63;;
1412;SDS011;701;52.526;13.408;2023-06-22T08:54:33;7.03;;;3.20;;
1412;SDS011;701;52.526;13.408;2023-06-22T08:57:00;10.35;;;3.17;;
1412;SDS011;701;52.526;13.408;2023-06-22T08:59:26;6.55;;;2.70;;
1412;SDS011;701;52.526;13.408;2023-06-22T09:01:52;11.70;;;3.23;;
1412;SDS011;701;52.526;13.408;2023-06-22T09:04:17;6.57;;;2.90;;
1412;SDS011;701;52.526;13.408;2023-06-22T09:06:43;5.57;;;2.77;;
1412;SDS011;701;52.526;13.408;2023-06-22T09:09:15;5.50;;;2.40;;
1412;SDS011;701;52.526;13.408;2023-06-22T09:11:41;5.93;;;2.80;;
1412;SDS011;701;52.526;13.408;2023-06-22T09:14:07;5.45;;;2.70;;
1412;SDS011;701;52.526;13.408;2023-06-22T09:16:34;8.02;;;2.78;;
1412;SDS011;701;52.526;13.408;2023-06-22T09:18:59;9.73;;;3.97;;
1412;SDS011;701;52.526;13.408;2023-06-22T09:21:25;10.23;;;5.55;;
1412;SDS011;701;52.526;13.408;2023-06-22T09:23:51;6.50;;;3.17;;
1412;SDS011;701;52.526;13.408;2023-06-22T09:26:17;9.38;;;2.55;;
1412;SDS011;701;52.526;13.408;2023-06-22T09:28:43;8.35;;;3.47;;
1412;SDS011;701;52.526;13.408;2023-06-22T09:31:09;7.63;;;3.55;;
1412;SDS011;701;52.526;13.408;2023-06-22T09:33:35;7.00;;;2.83;;
1412;SDS011;701;52.526;13.408;2023-06-22T09:36:04;6.75;;;2.63;;
1412;SDS011;701;52.526;13.408;2023-06-22T09:38:38;5.82;;;2.53;;
1412;SDS011;701;52.526;13.408;2023-06-22T09:41:04;6.93;;;3.00;;
1412;SDS011;701;52.526;13.408;2023-06-22T09:43:31;6.40;;;2.60;;
1412;SDS011;701;52.526;13.408;2023-06-22T09:46:00;8.20;;;3.00;;
1412;SDS011;701;52.526;13.408;2023-06-22T09:48:27;7.13;;;2.60;;
1412;SDS011;701;52.526;13.408;2023-06-22T09:50:54;7.03;;;2.78;;
1412;SDS011;701;52.526;13.408;2023-06-22T09:53:20;6.70;;;3.10;;
1412;SDS011;701;52.526;13.408;2023-06-22T09:55:46;6.30;;;2.83;;
1412;SDS011;701;52.526;13.408;2023-06-22T09:58:12;5.90;;;2.70;;
1412;SDS011;701;52.526;13.408;2023-06-22T10:00:38;7.90;;;3.30;;
1412;SDS011;701;52.526;13.408;2023-06-22T10:03:04;6.45;;;2.85;;
1412;SDS011;701;52.526;13.408;2023-06-22T10:05:29;6.17;;;3.10;;
1412;SDS011;701;52.526;13.408;2023-06-22T10:07:55;6.15;;;3.20;;
1412;SDS011;701;52.526;13.408;2023-06-22T10:10:21;6.85;;;3.15;;
1412;SDS011;701;52.526;13.408;2023-06-22T10:12:48;7.80;;;2.73;;
1412;SDS011;701;52.526;13.408;2023-06-22T10:15:21;5.68;;;3.10;;
1412;SDS011;701;52.526;13.408;2023-06-22T10:17:47;5.05;;;2.50;;
1412;SDS011;701;52.526;13.408;2023-06-22T10:20:13;7.75;;;2.85;;
1412;SDS011;701;52.526;13.408;2023-06-22T10:22:40;7.70;;;3.25;;
1412;SDS011;701;52.526;13.408;2023-06-22T10:25:07;7.03;;;3.07;;
1412;SDS011;701;52.526;13.408;2023-06-22T10:27:34;5.53;;;2.90;;
1412;SDS011;701;52.526;13.408;2023-06-22T10:30:00;8.52;;;3.30;;
1412;SDS011;701;52.526;13.408;2023-06-22T10:32:26;7.25;;;3.10;;
1412;SDS011;701;52.526;13.408;2023-06-22T10:34:53;7.25;;;3.45;;
1412;SDS011;701;52.526;13.408;2023-06-22T10:37:19;6.47;;;3.17;;
1412;SDS011;701;52.526;13.408;2023-06-22T10:39:46;7.50;;;3.35;;
1412;SDS011;701;52.526;13.408;2023-06-22T10:42:12;9.68;;;3.53;;
1412;SDS011;701;52.526;13.408;2023-06-22T10:44:38;6.80;;;3.17;;
1412;SDS011;701;52.526;13.408;2023-06-22T10:47:06;5.93;;;3.00;;
1412;SDS011;701;52.526;13.408;2023-06-22T10:49:32;8.65;;;3.05;;
1412;SDS011;701;52.526;13.408;2023-06-22T10:51:58;11.30;;;7.00;;
1412;SDS011;701;52.526;13.408;2023-06-22T10:54:23;7.50;;;3.33;;
1412;SDS011;701;52.526;13.408;2023-06-22T10:56:49;11.65;;;8.88;;
1412;SDS011;701;52.526;13.408;2023-06-22T10:59:15;6.63;;;2.93;;
1412;SDS011;701;52.526;13.408;2023-06-22T11:01:41;7.20;;;2.75;;
1412;SDS011;701;52.526;13.408;2023-06-22T11:04:07;9.27;;;3.58;;
1412;SDS011;701;52.526;13.408;2023-06-22T11:06:33;6.60;;;2.90;;
1412;SDS011;701;52.526;13.408;2023-06-22T11:08:59;7.03;;;3.80;;
1412;SDS011;701;52.526;13.408;2023-06-22T11:11:25;8.27;;;3.72;;
1412;SDS011;701;52.526;13.408;2023-06-22T11:13:52;10.70;;;3.20;;
1412;SDS011;701;52.526;13.408;2023-06-22T11:16:18;6.72;;;3.00;;
1412;SDS011;701;52.526;13.408;2023-06-22T11:18:43;5.55;;;2.95;;
1412;SDS011;701;52.526;13.408;2023-06-22T11:21:09;7.90;;;3.40;;
1412;SDS011;701;52.526;13.408;2023-06-22T11:23:35;6.18;;;3.35;;
1412;SDS011;701;52.526;13.408;2023-06-22T11:26:00;7.10;;;3.13;;
1412;SDS011;701;52.526;13.408;2023-06-22T11:28:27;7.63;;;3.30;;
1412;SDS011;701;52.526;13.408;2023-06-22T11:30:53;6.97;;;2.70;;
1412;SDS011;701;52.526;13.408;2023-06-22T11:33:18;5.50;;;2.87;;
1412;SDS011;701;52.526;13.408;2023-06-22T11:35:44;7.55;;;3.17;;
1412;SDS011;701;52.526;13.408;2023-06-22T11:38:10;6.07;;;3.23;;
1412;SDS011;701;52.526;13.408;2023-06-22T11:40:35;6.10;;;3.15;;
1412;SDS011;701;52.526;13.408;2023-06-22T11:43:01;6.33;;;3.40;;
1412;SDS011;701;52.526;13.408;2023-06-22T11:45:27;7.53;;;3.50;;
1412;SDS011;701;52.526;13.408;2023-06-22T11:47:53;12.73;;;3.25;;
1412;SDS011;701;52.526;13.408;2023-06-22T11:50:19;6.00;;;2.90;;
1412;SDS011;701;52.526;13.408;2023-06-22T11:52:45;7.38;;;3.95;;
1412;SDS011;701;52.526;13.408;2023-06-22T11:55:10;6.90;;;3.30;;
1412;SDS011;701;52.526;13.408;2023-06-22T11:57:37;7.18;;;3.00;;
1412;SDS011;701;52.526;13.408;2023-06-22T12:00:03;7.75;;;2.78;;
1412;SDS011;701;52.526;13.408;2023-06-22T12:02:43;8.77;;;3.55;;
1412;SDS011;701;52.526;13.408;2023-06-22T12:05:11;7.60;;;3.30;;
1412;SDS011;701;52.526;13.408;2023-06-22T12:07:37;8.15;;;3.67;;
1412;SDS011;701;52.526;13.408;2023-06-22T12:10:03;6.70;;;3.13;;
1412;SDS011;701;52.526;13.408;2023-06-22T12:12:29;7.95;;;3.83;;
1412;SDS011;701;52.526;13.408;2023-06-22T12:14:55;8.37;;;2.87;;
1412;SDS011;701;52.526;13.408;2023-06-22T12:17:21;6.22;;;3.28;;
1412;SDS011;701;52.526;13.408;2023-06-22T12:19:46;42.83;;;31.50;;
1412;SDS011;701;52.526;13.408;2023-06-22T12:22:12;8.20;;;4.15;;
1412;SDS011;701;52.526;13.408;2023-06-22T12:24:38;5.93;;;3.20;;
1412;SDS011;701;52.526;13.408;2023-06-22T12:27:04;8.25;;;3.47;;
1412;SDS011;701;52.526;13.408;2023-06-22T12:29:30;8.00;;;3.30;;
1412;SDS011;701;52.526;13.408;2023-06-22T12:31:55;7.47;;;3.27;;
1412;SDS011;701;52.526;13.408;2023-06-22T12:34:21;7.68;;;3.13;;
1412;SDS011;701;52.526;13.408;2023-06-22T12:36:47;7.93;;;3.47;;
1412;SDS011;701;52.526;13.408;2023-06-22T12:39:14;6.57;;;3.55;;
1412;SDS011;701;52.526;13.408;2023-06-22T12:41:39;6.88;;;3.25;;
1412;SDS011;701;52.526;13.408;2023-06-22T12:44:05;8.60;;;3.50;;
1412;SDS011;701;52.526;13.408;2023-06-22T12:46:31;6.93;;;3.50;;
1412;SDS011;701;52.526;13.408;2023-06-22T12:49:02;7.05;;;3.22;;
1412;SDS011;701;52.526;13.408;2023-06-22T12:51:29;7.95;;;3.47;;
1412;SDS011;701;52.526;13.408;2023-06-22T12:53:55;7.43;;;3.00;;
1412;SDS011;701;52.526;13.408;2023-06-22T12:56:21;7.50;;;3.33;;
1412;SDS011;701;52.526;13.408;2023-06-22T12:58:47;7.22;;;3.72;;
1412;SDS011;701;52.526;13.408;2023-06-22T13:01:13;9.30;;;3.60;;
1412;SDS011;701;52.526;13.408;2023-06-22T13:03:39;8.05;;;3.42;;
1412;SDS011;701;52.526;13.408;2023-06-22T13:06:07;8.80;;;3.40;;
1412;SDS011;701;52.526;13.408;2023-06-22T13:08:32;7.13;;;3.60;;
1412;SDS011;701;52.526;13.408;2023-06-22T13:10:58;7.03;;;3.83;;
1412;SDS011;701;52.526;13.408;2023-06-22T13:13:25;5.73;;;3.00;;
1412;SDS011;701;52.526;13.408;2023-06-22T13:15:52;7.30;;;3.05;;
1412;SDS011;701;52.526;13.408;2023-06-22T13:18:19;6.95;;;3.50;;
1412;SDS011;701;52.526;13.408;2023-06-22T13:20:45;6.40;;;3.40;;
1412;SDS011;701;52.526;13.408;2023-06-22T13:23:11;8.13;;;3.47;;
1412;SDS011;701;52.526;13.408;2023-06-22T13:25:37;9.32;;;3.28;;
1412;SDS011;701;52.526;13.408;2023-06-22T13:28:03;7.93;;;3.67;;
1412;SDS011;701;52.526;13.408;2023-06-22T13:30:29;8.00;;;3.57;;
1412;SDS011;701;52.526;13.408;2023-06-22T13:32:57;8.05;;;3.20;;
1412;SDS011;701;52.526;13.408;2023-06-22T13:35:22;8.68;;;3.65;;
1412;SDS011;701;52.526;13.408;2023-06-22T13:37:48;7.70;;;3.23;;
1412;SDS011;701;52.526;13.408;2023-06-22T13:40:14;6.63;;;3.78;;
1412;SDS011;701;52.526;13.408;2023-06-22T13:42:40;6.03;;;3.00;;
1412;SDS011;701;52.526;13.408;2023-06-22T13:45:06;6.33;;;3.70;;
1412;SDS011;701;52.526;13.408;2023-06-22T13:47:32;8.02;;;3.58;;
1412;SDS011;701;52.526;13.408;2023-06-22T13:49:58;9.15;;;5.00;;
1412;SDS011;701;52.526;13.408;2023-06-22T13:52:24;6.67;;;3.70;;
1412;SDS011;701;52.526;13.408;2023-06-22T13:54:50;6.80;;;3.60;;
1412;SDS011;701;52.526;13.408;2023-06-22T13:57:16;6.65;;;3.60;;
1412;SDS011;701;52.526;13.408;2023-06-22T13:59:42;11.47;;;3.93;;
1412;SDS011;701;52.526;13.408;2023-06-22T14:02:07;6.57;;;3.00;;
1412;SDS011;701;52.526;13.408;2023-06-22T14:04:33;9.23;;;5.10;;
1412;SDS011;701;52.526;13.408;2023-06-22T14:06:59;7.37;;;3.60;;
1412;SDS011;701;52.526;13.408;2023-06-22T14:09:25;7.43;;;3.83;;
1412;SDS011;701;52.526;13.408;2023-06-22T14:11:50;7.40;;;3.57;;
1412;SDS011;701;52.526;13.408;2023-06-22T14:14:16;8.10;;;3.72;;
1412;SDS011;701;52.526;13.408;2023-06-22T14:16:42;8.90;;;4.17;;
1412;SDS011;701;52.526;13.408;2023-06-22T14:19:07;7.18;;;3.70;;
1412;SDS011;701;52.526;13.408;2023-06-22T14:21:33;8.57;;;4.17;;
1412;SDS011;701;52.526;13.408;2023-06-22T14:23:59;7.68;;;4.03;;
1412;SDS011;701;52.526;13.408;2023-06-22T14:26:25;11.90;;;6.77;;
1412;SDS011;701;52.526;13.408;2023-06-22T14:28:50;7.43;;;3.70;;
1412;SDS011;701;52.526;13.408;2023-06-22T14:31:17;8.32;;;4.13;;
1412;SDS011;701;52.526;13.408;2023-06-22T14:33:45;7.90;;;3.88;;
1412;SDS011;701;52.526;13.408;2023-06-22T14:36:12;7.50;;;3.80;;
1412;SDS011;701;52.526;13.408;2023-06-22T14:38:39;7.93;;;3.95;;
1412;SDS011;701;52.526;13.408;2023-06-22T14:41:04;6.72;;;3.95;;
1412;SDS011;701;52.526;13.408;2023-06-22T14:43:30;6.90;;;3.83;;
1412;SDS011;701;52.526;13.408;2023-06-22T14:45:56;6.15;;;3.55;;
1412;SDS011;701;52.526;13.408;2023-06-22T14:48:22;8.90;;;3.60;;
1412;SDS011;701;52.526;13.408;2023-06-22T14:50:48;9.83;;;4.03;;
1412;SDS011;701;52.526;13.408;2023-06-22T14:53:14;6.93;;;4.00;;
1412;SDS011;701;52.526;13.408;2023-06-22T14:55:40;7.00;;;4.28;;
1412;SDS011;701;52.526;13.408;2023-06-22T14:58:06;6.78;;;4.00;;
1412;SDS011;701;52.526;13.408;2023-06-22T15:00:32;7.23;;;3.93;;
1412;SDS011;701;52.526;13.408;2023-06-22T15:02:57;7.72;;;3.50;;
1412;SDS011;701;52.526;13.408;2023-06-22T15:05:24;7.32;;;3.47;;
1412;SDS011;701;52.526;13.408;2023-06-22T15:07:50;7.43;;;3.67;;
1412;SDS011;701;52.526;13.408;2023-06-22T15:10:16;6.95;;;3.72;;
1412;SDS011;701;52.526;13.408;2023-06-22T15:12:42;8.32;;;3.90;;
1412;SDS011;701;52.526;13.408;2023-06-22T15:15:08;6.88;;;3.85;;
1412;SDS011;701;52.526;13.408;2023-06-22T15:17:34;6.70;;;3.97;;
1412;SDS011;701;52.526;13.408;2023-06-22T15:20:00;6.65;;;3.83;;
1412;SDS011;701;52.526;13.408;2023-06-22T15:22:28;6.97;;;3.70;;